Pagrindinis puslapis
METAR-TAF:

METAR-TAF

Oro uostai :

Alamogordo, Naujoji Meksika, Jungtinės Amerikos Valstijos

platuma: 32-50N, ilguma: 105-59W, Aukštis: 1279 m

Dabartinis oras

Ataskaita buvo paskelbta 34 minutes, ne 11:15 UTC
Vėjas 7 kt iš Vakarų/Pietvakarių
Temperatūra 19°C
Drėgmė 37%
Slėgis 1024 hPa
Matomumas: 16.1 km
Giedras dangus

METAR: KALM 291115Z AUTO 24007KT 10SM CLR 19/04 A3024 RMK AO2

Laikas: 05:49 (11:49 UTC)


TAF: trūkstamas

Orai ataskaitas ir orų prognozės (METAR, TAF).

turimą stotys yra geltonos ir raudonos taškus žemėlapyje.

Perkelti pele per norėdami pamatyti stoties vardą.

Tada spustelėkite, norėdami matyti oro stebėjimo ir prognozės.

Norėdami pakeisti žemėlapį: spustelėkite ant žalios mygtukų su juodo kryžiaus žemyn,; žalią mygtuką su brūkšneliu, jei norite nutolinti; arba žalių rodyklių gretimoms žemėlapius.


METAR-TAF: